Time;durP1;ratioP1;P1;durP2;ratioP2;P2;SDS_P1;SDS_P2;PMS_P1;PMS_P2;Temp;Humidity;BMP_temperature;BMP_pressure;BME280_temperature;BME280_humidity;BME280_pressure;Samples;Min_cycle;Max_cycle;Signal;HPM_P1;HPM_P2
2022/05/08 00:01:38;;;;;;;;;;;21.90;90.10;;;;;;5004536;28;19945;-55
2022/05/08 00:04:06;;;;;;;;;;;21.90;90.10;;;;;;5011795;28;19936;-56
2022/05/08 00:06:33;;;;;;;;;;;21.90;90.20;;;;;;5004149;28;20531;-56
2022/05/08 00:09:00;;;;;;;;;;;21.90;90.30;;;;;;5009790;28;20318;-57
2022/05/08 00:11:27;;;;;;;;;;;21.90;90.40;;;;;;5004025;28;20328;-58
2022/05/08 00:13:55;;;;;;;;;;;21.90;90.50;;;;;;5014716;28;19936;-57
2022/05/08 00:16:22;;;;;;;;;;;21.90;90.50;;;;;;5016315;28;20317;-56
2022/05/08 00:18:50;;;;;;;;;;;21.90;90.60;;;;;;5014064;28;19933;-57
2022/05/08 00:21:17;;;;;;;;;;;21.90;90.60;;;;;;5007839;28;19929;-55
2022/05/08 00:23:44;;;;;;;;;;;21.90;90.70;;;;;;5018615;28;20292;-56
2022/05/08 00:26:11;;;;;;;;;;;21.90;90.80;;;;;;5010453;28;19936;-57
2022/05/08 00:28:38;;;;;;;;;;;21.90;90.80;;;;;;5015147;28;19926;-56
2022/05/08 00:31:08;;;;;;;;;;;21.90;90.90;;;;;;5014412;28;19930;-57
2022/05/08 00:33:35;;;;;;;;;;;21.90;90.90;;;;;;5013477;28;19928;-56
2022/05/08 00:36:02;;;;;;;;;;;21.90;91.00;;;;;;5000869;28;19937;-58
2022/05/08 00:38:29;;;;;;;;;;;21.90;91.00;;;;;;5012111;28;19933;-58
2022/05/08 00:40:56;;;;;;;;;;;21.90;91.10;;;;;;5004712;28;20348;-56
2022/05/08 00:43:28;;;;;;;;;;;21.90;91.10;;;;;;5016252;28;20269;-58
2022/05/08 00:45:55;;;;;;;;;;;21.90;91.10;;;;;;5012628;28;19929;-55
2022/05/08 00:48:23;;;;;;;;;;;21.90;91.20;;;;;;5008568;28;19929;-53
2022/05/08 00:50:51;;;;;;;;;;;21.90;91.30;;;;;;5008098;28;19972;-56
2022/05/08 00:53:19;;;;;;;;;;;21.90;91.30;;;;;;5009352;28;19945;-57
2022/05/08 00:55:46;;;;;;;;;;;21.90;91.40;;;;;;5008949;28;20289;-52
2022/05/08 00:58:14;;;;;;;;;;;21.90;91.40;;;;;;5001738;28;19936;-56
2022/05/08 01:00:42;;;;;;;;;;;21.90;91.50;;;;;;5004450;28;19937;-56
2022/05/08 01:03:10;;;;;;;;;;;21.90;91.50;;;;;;5005566;28;19937;-53
2022/05/08 01:05:41;;;;;;;;;;;21.90;91.60;;;;;;5009110;28;19932;-57
2022/05/08 01:08:09;;;;;;;;;;;21.90;91.60;;;;;;5012614;28;19929;-55
2022/05/08 01:10:37;;;;;;;;;;;21.90;91.60;;;;;;5005558;28;19936;-55
2022/05/08 01:13:05;;;;;;;;;;;21.90;91.60;;;;;;5014338;28;19929;-55
2022/05/08 01:15:42;;;;;;;;;;;21.90;91.70;;;;;;5008135;28;19932;-57
2022/05/08 01:18:12;;;;;;;;;;;21.80;91.70;;;;;;4998254;28;20325;-57
2022/05/08 01:20:40;;;;;;;;;;;21.80;91.70;;;;;;5006516;28;19926;-54
2022/05/08 01:23:08;;;;;;;;;;;21.90;91.70;;;;;;5001862;28;19929;-54
2022/05/08 01:25:43;;;;;;;;;;;21.80;91.80;;;;;;5010511;28;20396;-57
2022/05/08 01:28:11;;;;;;;;;;;21.80;91.80;;;;;;5014017;28;19951;-56
2022/05/08 01:30:39;;;;;;;;;;;21.80;91.80;;;;;;5008507;28;20427;-59
2022/05/08 01:33:06;;;;;;;;;;;21.90;91.90;;;;;;5010139;28;19925;-55
2022/05/08 01:35:34;;;;;;;;;;;21.90;91.90;;;;;;5007983;28;20032;-53
2022/05/08 01:38:01;;;;;;;;;;;21.80;92.00;;;;;;5009932;28;19977;-54
2022/05/08 01:40:30;;;;;;;;;;;21.80;92.00;;;;;;5004225;28;19952;-53
2022/05/08 01:42:57;;;;;;;;;;;21.90;92.10;;;;;;5004957;28;19940;-53
2022/05/08 01:45:24;;;;;;;;;;;21.80;92.10;;;;;;5015355;28;19933;-57
2022/05/08 01:50:38;;;;;;;;;;;21.90;92.20;;;;;;5010653;28;19936;-52
2022/05/08 01:53:05;;;;;;;;;;;21.90;92.20;;;;;;5003054;28;20343;-56
2022/05/08 01:55:33;;;;;;;;;;;21.80;92.20;;;;;;5014284;28;19929;-55
2022/05/08 01:58:01;;;;;;;;;;;21.80;92.20;;;;;;5010415;28;19926;-56
2022/05/08 02:00:29;;;;;;;;;;;21.80;92.30;;;;;;5027928;28;20416;-56
2022/05/08 02:02:58;;;;;;;;;;;21.80;92.30;;;;;;5012867;28;19945;-56
2022/05/08 02:05:25;;;;;;;;;;;21.80;92.30;;;;;;5012814;28;19933;-57
2022/05/08 02:07:53;;;;;;;;;;;21.80;92.60;;;;;;5006636;28;19956;-54
2022/05/08 02:10:20;;;;;;;;;;;21.80;92.40;;;;;;5002688;28;19934;-57
2022/05/08 02:12:47;;;;;;;;;;;21.80;92.40;;;;;;5002145;28;19925;-56
2022/05/08 02:15:17;;;;;;;;;;;21.80;92.40;;;;;;5007934;28;19936;-55
2022/05/08 02:17:44;;;;;;;;;;;21.80;92.40;;;;;;5005841;28;20409;-56
2022/05/08 02:20:11;;;;;;;;;;;21.80;92.40;;;;;;5005281;28;19953;-57
2022/05/08 02:22:39;;;;;;;;;;;21.80;92.50;;;;;;4997693;28;20019;-54
2022/05/08 02:25:07;;;;;;;;;;;21.80;92.50;;;;;;5010114;28;19947;-57
2022/05/08 02:27:40;;;;;;;;;;;21.80;92.50;;;;;;5007146;28;19937;-53
2022/05/08 02:30:08;;;;;;;;;;;21.80;92.50;;;;;;5010984;28;19936;-57
2022/05/08 02:32:35;;;;;;;;;;;21.80;92.50;;;;;;5009397;28;19929;-55
2022/05/08 02:35:04;;;;;;;;;;;21.80;92.50;;;;;;5000602;28;19925;-56
2022/05/08 02:37:31;;;;;;;;;;;21.80;92.60;;;;;;5002822;28;19945;-55
2022/05/08 02:39:58;;;;;;;;;;;21.80;92.60;;;;;;5008041;28;20334;-56
2022/05/08 02:42:27;;;;;;;;;;;21.80;92.60;;;;;;5007385;28;19937;-57
2022/05/08 02:44:54;;;;;;;;;;;21.80;92.60;;;;;;5003276;28;20429;-53
2022/05/08 02:47:21;;;;;;;;;;;21.70;92.60;;;;;;5009682;28;19934;-55
2022/05/08 02:49:48;;;;;;;;;;;21.80;92.70;;;;;;5009360;28;19941;-55
2022/05/08 02:52:16;;;;;;;;;;;21.70;92.60;;;;;;5002859;28;20385;-56
2022/05/08 02:54:43;;;;;;;;;;;21.70;92.70;;;;;;5006240;28;19925;-53
2022/05/08 03:00:00;;;;;;;;;;;21.70;92.70;;;;;;5004891;28;19929;-55
2022/05/08 03:02:28;;;;;;;;;;;21.70;92.70;;;;;;5010916;28;19928;-53
2022/05/08 03:04:56;;;;;;;;;;;21.70;92.70;;;;;;5008466;28;19930;-58
2022/05/08 03:07:23;;;;;;;;;;;21.70;92.70;;;;;;5015012;28;19929;-55
2022/05/08 03:09:50;;;;;;;;;;;21.70;92.70;;;;;;5007560;28;20008;-53
2022/05/08 03:12:17;;;;;;;;;;;21.70;92.70;;;;;;5007491;28;19929;-57
2022/05/08 03:14:44;;;;;;;;;;;21.70;92.70;;;;;;5013215;28;19930;-56
2022/05/08 03:17:11;;;;;;;;;;;21.70;92.80;;;;;;5021061;28;19934;-57
2022/05/08 03:19:38;;;;;;;;;;;21.70;92.80;;;;;;5007885;28;19933;-54
2022/05/08 03:22:06;;;;;;;;;;;21.70;93.10;;;;;;5019028;28;19936;-57
2022/05/08 03:24:33;;;;;;;;;;;21.70;92.80;;;;;;5012909;28;19929;-53
2022/05/08 03:27:00;;;;;;;;;;;21.70;92.80;;;;;;5012340;28;19944;-57
2022/05/08 03:29:27;;;;;;;;;;;21.70;92.90;;;;;;5010271;28;19937;-58
2022/05/08 03:31:55;;;;;;;;;;;21.70;92.90;;;;;;5006693;28;19933;-55
2022/05/08 03:34:24;;;;;;;;;;;21.70;92.90;;;;;;5011165;28;19956;-57
2022/05/08 03:36:51;;;;;;;;;;;21.70;92.90;;;;;;5006175;28;19941;-56
2022/05/08 03:39:19;;;;;;;;;;;21.70;92.90;;;;;;5009386;28;19926;-56
2022/05/08 03:41:46;;;;;;;;;;;21.70;92.90;;;;;;5012976;28;19937;-55
2022/05/08 03:44:13;;;;;;;;;;;21.70;92.90;;;;;;5013223;28;19926;-56
2022/05/08 03:46:40;;;;;;;;;;;21.60;92.90;;;;;;5017574;28;19925;-54
2022/05/08 03:49:07;;;;;;;;;;;21.60;92.90;;;;;;5011546;28;19929;-55
2022/05/08 03:51:34;;;;;;;;;;;21.70;92.90;;;;;;5000973;28;19929;-54
2022/05/08 03:54:02;;;;;;;;;;;21.70;92.90;;;;;;5011743;28;19933;-54
2022/05/08 03:56:29;;;;;;;;;;;21.60;92.90;;;;;;5007984;28;19929;-53
2022/05/08 03:58:56;;;;;;;;;;;21.70;93.00;;;;;;5010589;28;19929;-52
2022/05/08 04:01:23;;;;;;;;;;;21.60;93.00;;;;;;5007440;28;19934;-55
2022/05/08 04:03:50;;;;;;;;;;;21.60;93.00;;;;;;5009131;28;19976;-56
2022/05/08 04:06:17;;;;;;;;;;;21.60;93.10;;;;;;5004668;28;19925;-54
2022/05/08 04:08:44;;;;;;;;;;;21.60;93.10;;;;;;5008620;28;19932;-55
2022/05/08 04:11:11;;;;;;;;;;;21.60;93.10;;;;;;5015560;28;19940;-54
2022/05/08 04:13:38;;;;;;;;;;;21.60;93.10;;;;;;5011913;28;19944;-56
2022/05/08 04:16:18;;;;;;;;;;;21.60;93.10;;;;;;5005166;28;19944;-57
2022/05/08 04:18:46;;;;;;;;;;;21.60;93.10;;;;;;5007560;28;19940;-55
2022/05/08 04:21:13;;;;;;;;;;;21.60;93.10;;;;;;5002906;28;20373;-54
2022/05/08 04:26:26;;;;;;;;;;;21.60;93.10;;;;;;5015843;28;19929;-56
2022/05/08 04:28:53;;;;;;;;;;;21.60;93.10;;;;;;5009555;28;20293;-57
2022/05/08 04:31:21;;;;;;;;;;;21.60;93.10;;;;;;5009495;28;19934;-57
2022/05/08 04:33:49;;;;;;;;;;;21.60;93.20;;;;;;5006442;28;19925;-56
2022/05/08 04:36:16;;;;;;;;;;;21.60;93.40;;;;;;5006791;28;20663;-56
2022/05/08 04:38:44;;;;;;;;;;;21.60;93.40;;;;;;5009583;28;19962;-54
2022/05/08 04:41:11;;;;;;;;;;;21.60;93.40;;;;;;5004718;28;20441;-56
2022/05/08 04:43:40;;;;;;;;;;;21.60;93.70;;;;;;5009118;28;19934;-52
2022/05/08 04:46:08;;;;;;;;;;;21.60;93.80;;;;;;5012191;28;19929;-55
2022/05/08 04:48:35;;;;;;;;;;;21.60;93.90;;;;;;5010627;28;19929;-55
2022/05/08 04:51:02;;;;;;;;;;;21.70;93.90;;;;;;5010928;28;19933;-52
2022/05/08 04:53:30;;;;;;;;;;;21.70;94.00;;;;;;5009603;28;19940;-56
2022/05/08 04:55:58;;;;;;;;;;;21.70;94.00;;;;;;5007096;28;19925;-53
2022/05/08 04:58:29;;;;;;;;;;;21.70;94.10;;;;;;5004922;28;19926;-55
2022/05/08 05:00:57;;;;;;;;;;;21.70;94.10;;;;;;5004597;28;20412;-55
2022/05/08 05:03:25;;;;;;;;;;;21.70;94.20;;;;;;5007368;28;19929;-56
2022/05/08 05:05:52;;;;;;;;;;;21.70;94.10;;;;;;5014236;28;19933;-56
2022/05/08 05:08:20;;;;;;;;;;;21.70;94.20;;;;;;5017419;28;19944;-53
2022/05/08 05:10:48;;;;;;;;;;;21.60;94.50;;;;;;5016049;28;19925;-57
2022/05/08 05:13:15;;;;;;;;;;;21.70;94.40;;;;;;5044908;28;20424;-55
2022/05/08 05:15:42;;;;;;;;;;;21.70;94.30;;;;;;5007015;28;22052;-61
2022/05/08 05:18:09;;;;;;;;;;;21.70;94.30;;;;;;5011687;28;20428;-56
2022/05/08 05:20:37;;;;;;;;;;;21.80;94.30;;;;;;5007650;28;19936;-55
2022/05/08 05:23:04;;;;;;;;;;;21.80;94.30;;;;;;5000197;28;20652;-54
2022/05/08 05:25:32;;;;;;;;;;;21.80;94.40;;;;;;5014654;28;20401;-56
2022/05/08 05:27:59;;;;;;;;;;;21.80;94.40;;;;;;4998680;28;19940;-55
2022/05/08 05:30:26;;;;;;;;;;;21.80;94.30;;;;;;5001946;28;19930;-56
2022/05/08 05:32:53;;;;;;;;;;;21.80;94.40;;;;;;5008613;28;19941;-56
2022/05/08 05:35:20;;;;;;;;;;;21.90;94.50;;;;;;5004318;28;19936;-56
2022/05/08 05:37:47;;;;;;;;;;;21.90;94.50;;;;;;4999466;28;19926;-55
2022/05/08 05:40:14;;;;;;;;;;;21.90;94.40;;;;;;5012700;28;19925;-55
2022/05/08 05:42:41;;;;;;;;;;;21.90;94.40;;;;;;5012631;28;19935;-58
2022/05/08 05:45:08;;;;;;;;;;;21.90;94.40;;;;;;5000907;28;19932;-56
2022/05/08 05:47:52;;;;;;;;;;;21.80;94.30;;;;;;4996975;28;20432;-56
2022/05/08 05:50:20;;;;;;;;;;;21.90;94.10;;;;;;5008288;28;19929;-57
2022/05/08 05:52:48;;;;;;;;;;;21.80;93.80;;;;;;5002226;28;19932;-52
2022/05/08 05:55:15;;;;;;;;;;;21.70;93.60;;;;;;5007790;28;19926;-56
2022/05/08 05:57:43;;;;;;;;;;;21.70;92.70;;;;;;5003298;28;19926;-54
2022/05/08 06:00:14;;;;;;;;;;;21.60;92.70;;;;;;5004569;28;19932;-56
2022/05/08 06:02:43;;;;;;;;;;;21.60;92.30;;;;;;5010231;28;19929;-55
2022/05/08 06:05:11;;;;;;;;;;;21.60;92.10;;;;;;5002837;28;19934;-56
2022/05/08 06:07:39;;;;;;;;;;;21.50;91.20;;;;;;5008000;28;19925;-55
2022/05/08 06:10:07;;;;;;;;;;;21.40;91.40;;;;;;5006286;28;20396;-55
2022/05/08 06:12:34;;;;;;;;;;;21.40;91.30;;;;;;5001067;28;19937;-55
2022/05/08 06:15:01;;;;;;;;;;;21.40;91.40;;;;;;5011484;28;19937;-55
2022/05/08 06:17:31;;;;;;;;;;;21.40;91.40;;;;;;5005887;28;19937;-55
2022/05/08 06:19:58;;;;;;;;;;;21.40;91.30;;;;;;5001292;28;19925;-56
2022/05/08 06:22:25;;;;;;;;;;;21.40;91.00;;;;;;4999293;28;19930;-55
2022/05/08 06:24:52;;;;;;;;;;;21.40;91.00;;;;;;5003747;28;19933;-52
2022/05/08 06:27:20;;;;;;;;;;;21.40;91.00;;;;;;5002292;28;19930;-56
2022/05/08 06:29:48;;;;;;;;;;;21.40;90.90;;;;;;5003587;28;19929;-56
2022/05/08 06:32:15;;;;;;;;;;;21.50;90.90;;;;;;5002431;28;19936;-56
2022/05/08 06:34:42;;;;;;;;;;;21.50;91.20;;;;;;5001738;28;19930;-56
2022/05/08 06:37:09;;;;;;;;;;;21.50;90.90;;;;;;5019493;28;19945;-56
2022/05/08 06:39:38;;;;;;;;;;;21.50;90.90;;;;;;5009794;28;19937;-57
2022/05/08 06:42:06;;;;;;;;;;;21.50;90.90;;;;;;5012317;28;19935;-57
2022/05/08 06:44:43;;;;;;;;;;;21.40;90.90;;;;;;5008828;28;19933;-51
2022/05/08 06:47:10;;;;;;;;;;;21.40;90.90;;;;;;5004408;28;20519;-57
2022/05/08 06:49:38;;;;;;;;;;;21.40;90.90;;;;;;5012615;28;20404;-56
2022/05/08 06:52:05;;;;;;;;;;;21.50;91.00;;;;;;5015534;28;20503;-55
2022/05/08 06:54:32;;;;;;;;;;;21.50;91.00;;;;;;5007897;28;19925;-59
2022/05/08 06:57:00;;;;;;;;;;;21.50;91.00;;;;;;5014187;28;20423;-59
2022/05/08 07:02:12;;;;;;;;;;;21.50;91.00;;;;;;5011243;28;20280;-54
2022/05/08 07:04:40;;;;;;;;;;;21.50;91.00;;;;;;5009794;28;19925;-55
2022/05/08 07:07:07;;;;;;;;;;;21.50;91.10;;;;;;5013302;28;20345;-56
2022/05/08 07:09:35;;;;;;;;;;;21.50;91.10;;;;;;5006995;28;19937;-58
2022/05/08 07:12:02;;;;;;;;;;;21.50;91.20;;;;;;5009886;28;20321;-56
2022/05/08 07:14:29;;;;;;;;;;;21.50;91.30;;;;;;5009239;28;19925;-57
2022/05/08 07:16:57;;;;;;;;;;;21.50;91.40;;;;;;5012446;28;19930;-57
2022/05/08 07:19:25;;;;;;;;;;;21.50;91.50;;;;;;5008611;28;20300;-59
2022/05/08 07:21:52;;;;;;;;;;;21.50;92.00;;;;;;5010107;28;19940;-54
2022/05/08 07:24:21;;;;;;;;;;;21.60;92.10;;;;;;5017373;28;20033;-57
2022/05/08 07:26:48;;;;;;;;;;;21.60;92.50;;;;;;5007836;28;19933;-58
2022/05/08 07:29:15;;;;;;;;;;;21.60;92.50;;;;;;5022364;28;20055;-57
2022/05/08 07:31:43;;;;;;;;;;;21.60;92.40;;;;;;5004164;28;19981;-57
2022/05/08 07:36:56;;;;;;;;;;;21.60;92.60;;;;;;5005457;28;20180;-56
2022/05/08 07:39:23;;;;;;;;;;;21.60;92.50;;;;;;4998624;28;19926;-57
2022/05/08 07:41:51;;;;;;;;;;;21.60;92.50;;;;;;5004851;28;20317;-56
2022/05/08 07:44:19;;;;;;;;;;;21.60;92.60;;;;;;5003576;28;19930;-58
2022/05/08 07:46:46;;;;;;;;;;;21.60;92.60;;;;;;5010996;28;19937;-55
2022/05/08 07:49:13;;;;;;;;;;;21.70;92.70;;;;;;5006771;28;19929;-56
2022/05/08 07:51:40;;;;;;;;;;;21.70;92.70;;;;;;5010457;28;19936;-53
2022/05/08 07:54:07;;;;;;;;;;;21.70;92.80;;;;;;5013568;28;20294;-58
2022/05/08 07:56:35;;;;;;;;;;;21.70;92.80;;;;;;5010408;28;20297;-54
2022/05/08 07:59:03;;;;;;;;;;;21.70;92.90;;;;;;5011902;28;19936;-57
2022/05/08 08:01:30;;;;;;;;;;;21.70;93.10;;;;;;4999617;28;19929;-57
2022/05/08 08:04:15;;;;;;;;;;;21.70;92.90;;;;;;5013920;28;19933;-58
2022/05/08 08:06:42;;;;;;;;;;;21.70;93.00;;;;;;5011698;28;19956;-55
2022/05/08 08:09:10;;;;;;;;;;;21.70;93.00;;;;;;5006810;28;19952;-58
2022/05/08 08:11:39;;;;;;;;;;;21.70;92.90;;;;;;5012011;28;20289;-60
2022/05/08 08:14:06;;;;;;;;;;;21.80;93.10;;;;;;5006226;28;19929;-58
2022/05/08 08:16:33;;;;;;;;;;;21.80;93.10;;;;;;5007232;28;19930;-55
2022/05/08 08:19:00;;;;;;;;;;;21.80;93.10;;;;;;5004399;28;19936;-58
2022/05/08 08:21:27;;;;;;;;;;;21.80;93.10;;;;;;5010043;28;19926;-58
2022/05/08 08:23:54;;;;;;;;;;;21.80;93.20;;;;;;5007780;28;19930;-57
2022/05/08 08:26:21;;;;;;;;;;;21.80;93.30;;;;;;5013038;28;20251;-57
2022/05/08 08:28:48;;;;;;;;;;;21.80;93.30;;;;;;5007734;28;19932;-58
2022/05/08 08:31:16;;;;;;;;;;;21.80;93.30;;;;;;5008415;28;20281;-60
2022/05/08 08:33:44;;;;;;;;;;;21.80;93.30;;;;;;4996667;28;20252;-55
2022/05/08 08:36:12;;;;;;;;;;;21.80;93.40;;;;;;5010597;28;19936;-56
2022/05/08 08:38:39;;;;;;;;;;;21.90;93.40;;;;;;5012073;28;19933;-55
2022/05/08 08:41:07;;;;;;;;;;;21.90;93.40;;;;;;5005887;28;19940;-57
2022/05/08 08:49:12;;;;;;;;;;;21.90;93.60;;;;;;5010317;28;19925;-55
2022/05/08 08:51:39;;;;;;;;;;;21.90;93.50;;;;;;5011966;28;19925;-56
2022/05/08 08:54:06;;;;;;;;;;;21.90;93.50;;;;;;5009326;28;19948;-58
2022/05/08 08:56:34;;;;;;;;;;;21.90;93.60;;;;;;5008207;28;19933;-56
2022/05/08 08:59:01;;;;;;;;;;;22.00;93.60;;;;;;5007047;28;19929;-60
2022/05/08 09:01:31;;;;;;;;;;;22.00;93.50;;;;;;5004716;28;20369;-56
2022/05/08 09:04:01;;;;;;;;;;;22.00;93.10;;;;;;5005937;28;20409;-58
2022/05/08 09:06:36;;;;;;;;;;;22.00;93.10;;;;;;5004149;28;19925;-58
2022/05/08 09:09:20;;;;;;;;;;;22.00;93.00;;;;;;5005059;28;20301;-56
2022/05/08 09:11:47;;;;;;;;;;;21.90;93.00;;;;;;5004847;28;19925;-58
2022/05/08 09:14:28;;;;;;;;;;;21.90;92.90;;;;;;5008789;28;20313;-59
2022/05/08 09:16:55;;;;;;;;;;;22.00;93.00;;;;;;5009003;28;19944;-58
2022/05/08 09:19:36;;;;;;;;;;;22.00;93.00;;;;;;5006079;28;20021;-58
2022/05/08 09:22:04;;;;;;;;;;;22.00;93.00;;;;;;5003095;28;19937;-60
2022/05/08 09:24:33;;;;;;;;;;;22.00;93.10;;;;;;5010046;28;19929;-59
2022/05/08 09:27:16;;;;;;;;;;;22.00;93.00;;;;;;5001045;28;20412;-59
2022/05/08 09:29:43;;;;;;;;;;;22.00;93.20;;;;;;5001863;28;19929;-57
2022/05/08 09:32:38;;;;;;;;;;;22.00;93.10;;;;;;5006546;28;19930;-58
2022/05/08 09:35:06;;;;;;;;;;;22.00;93.10;;;;;;5002435;28;19929;-58
2022/05/08 09:37:34;;;;;;;;;;;22.00;93.40;;;;;;5003088;28;19930;-53
2022/05/08 09:40:16;;;;;;;;;;;22.00;93.50;;;;;;5006285;28;19936;-57
2022/05/08 09:42:43;;;;;;;;;;;22.00;93.60;;;;;;5008929;28;19956;-56
2022/05/08 09:45:11;;;;;;;;;;;22.00;93.60;;;;;;5006105;28;19940;-56
2022/05/08 09:47:47;;;;;;;;;;;22.00;93.60;;;;;;5006194;28;19974;-54
2022/05/08 09:50:16;;;;;;;;;;;22.10;94.20;;;;;;5013943;28;19925;-59
2022/05/08 09:52:44;;;;;;;;;;;22.10;94.10;;;;;;5015919;28;20374;-55
2022/05/08 09:55:14;;;;;;;;;;;22.10;94.20;;;;;;5008342;28;20294;-61
2022/05/08 09:57:42;;;;;;;;;;;22.10;94.40;;;;;;5009469;28;19936;-56
2022/05/08 10:00:13;;;;;;;;;;;22.10;94.50;;;;;;5005481;28;19940;-57
2022/05/08 10:02:40;;;;;;;;;;;22.10;94.50;;;;;;5004611;28;19938;-60
2022/05/08 10:05:08;;;;;;;;;;;22.10;94.40;;;;;;5011178;28;19966;-58
2022/05/08 10:07:37;;;;;;;;;;;22.10;94.50;;;;;;5004243;28;19926;-61
2022/05/08 10:15:41;;;;;;;;;;;22.10;94.90;;;;;;5017468;28;19937;-62
2022/05/08 10:18:24;;;;;;;;;;;22.20;94.90;;;;;;5002117;28;19925;-60
2022/05/08 10:21:02;;;;;;;;;;;22.20;94.80;;;;;;4997884;28;19934;-57
2022/05/08 10:23:33;;;;;;;;;;;22.20;94.60;;;;;;5016060;28;19926;-55
2022/05/08 10:26:15;;;;;;;;;;;22.10;94.50;;;;;;5009020;28;19929;-56
2022/05/08 10:29:01;;;;;;;;;;;22.20;94.60;;;;;;5008452;28;19937;-57
2022/05/08 10:31:48;;;;;;;;;;;22.10;94.60;;;;;;5022269;28;19958;-59
2022/05/08 10:34:28;;;;;;;;;;;22.10;94.70;;;;;;5003306;28;19933;-56
2022/05/08 10:37:13;;;;;;;;;;;22.10;94.70;;;;;;5001787;28;19933;-59
2022/05/08 10:39:41;;;;;;;;;;;22.10;94.70;;;;;;5004684;28;19936;-60
2022/05/08 10:42:23;;;;;;;;;;;22.10;94.80;;;;;;5011116;28;19929;-59
2022/05/08 10:44:51;;;;;;;;;;;22.10;94.80;;;;;;5004527;28;20401;-56
2022/05/08 10:47:41;;;;;;;;;;;22.10;94.80;;;;;;5012629;28;20660;-59
2022/05/08 10:50:11;;;;;;;;;;;22.10;94.90;;;;;;4999981;28;19940;-60
2022/05/08 10:52:43;;;;;;;;;;;22.10;94.90;;;;;;5000525;28;19934;-57
2022/05/08 10:55:15;;;;;;;;;;;22.10;95.10;;;;;;4999448;28;19937;-60
2022/05/08 10:57:45;;;;;;;;;;;22.20;95.00;;;;;;4985783;28;20523;-59
2022/05/08 11:00:18;;;;;;;;;;;22.20;95.00;;;;;;4985208;28;20916;-56
2022/05/08 11:02:51;;;;;;;;;;;22.10;95.10;;;;;;4982575;28;19933;-54
2022/05/08 11:05:21;;;;;;;;;;;22.20;95.20;;;;;;4982345;28;19933;-60
2022/05/08 11:07:57;;;;;;;;;;;22.20;95.30;;;;;;4987216;28;19934;-59
2022/05/08 11:10:26;;;;;;;;;;;22.20;95.30;;;;;;4997728;28;19930;-58
2022/05/08 11:12:59;;;;;;;;;;;22.20;95.50;;;;;;4983869;28;20428;-56
2022/05/08 11:15:27;;;;;;;;;;;22.20;95.60;;;;;;4984049;28;19944;-56
2022/05/08 11:18:08;;;;;;;;;;;22.30;95.80;;;;;;4982494;28;19940;-54
2022/05/08 11:20:45;;;;;;;;;;;22.20;95.80;;;;;;4984762;28;20285;-55
2022/05/08 11:23:13;;;;;;;;;;;22.20;95.90;;;;;;4985706;28;19934;-52
2022/05/08 11:25:41;;;;;;;;;;;22.30;95.90;;;;;;4985891;28;19930;-58
2022/05/08 11:28:15;;;;;;;;;;;22.30;96.00;;;;;;4988585;28;19933;-56
2022/05/08 11:30:50;;;;;;;;;;;22.20;96.00;;;;;;4989930;28;19952;-58
2022/05/08 11:36:05;;;;;;;;;;;22.20;96.20;;;;;;4986303;28;20480;-59
2022/05/08 11:38:39;;;;;;;;;;;22.30;96.20;;;;;;4985956;28;19933;-59
2022/05/08 11:41:08;;;;;;;;;;;22.20;96.80;;;;;;4987897;28;21472;-59
2022/05/08 11:43:36;;;;;;;;;;;22.20;96.50;;;;;;4985878;28;19933;-57
2022/05/08 11:46:03;;;;;;;;;;;22.20;96.50;;;;;;4985904;28;20223;-59
2022/05/08 11:48:37;;;;;;;;;;;22.20;96.60;;;;;;4990141;28;19929;-58
2022/05/08 11:51:04;;;;;;;;;;;22.20;96.70;;;;;;4989670;28;20468;-57
2022/05/08 11:53:39;;;;;;;;;;;22.20;96.70;;;;;;4990637;28;19944;-57
2022/05/08 11:56:26;;;;;;;;;;;22.20;96.60;;;;;;4995681;28;19964;-59
2022/05/08 11:58:54;;;;;;;;;;;22.20;96.60;;;;;;4989380;28;19934;-57
2022/05/08 12:01:25;;;;;;;;;;;22.30;96.70;;;;;;5011774;28;19940;-59
2022/05/08 12:03:53;;;;;;;;;;;22.20;96.70;;;;;;5000850;28;19934;-58
2022/05/08 12:06:21;;;;;;;;;;;22.20;96.70;;;;;;5024039;28;19940;-58
2022/05/08 12:08:53;;;;;;;;;;;22.20;96.80;;;;;;5015227;28;19933;-57
2022/05/08 12:11:33;;;;;;;;;;;22.20;96.80;;;;;;5001133;28;19930;-58
2022/05/08 12:14:05;;;;;;;;;;;22.20;96.80;;;;;;5003494;28;19929;-58
2022/05/08 12:16:32;;;;;;;;;;;22.20;96.90;;;;;;5011181;28;19929;-57
2022/05/08 12:19:16;;;;;;;;;;;22.30;96.90;;;;;;5000116;28;19932;-57
2022/05/08 12:21:44;;;;;;;;;;;22.30;96.90;;;;;;5004456;28;20308;-57
2022/05/08 12:24:12;;;;;;;;;;;22.30;96.80;;;;;;5004514;28;19930;-57
2022/05/08 12:26:39;;;;;;;;;;;22.30;96.70;;;;;;5008813;28;19932;-59
2022/05/08 12:29:23;;;;;;;;;;;22.30;96.60;;;;;;5004185;28;19930;-58
2022/05/08 12:31:51;;;;;;;;;;;22.30;96.50;;;;;;5014239;28;19929;-59
2022/05/08 12:34:19;;;;;;;;;;;22.30;96.40;;;;;;5010840;28;19929;-56
2022/05/08 12:36:48;;;;;;;;;;;22.30;96.30;;;;;;5023578;28;19936;-57
2022/05/08 12:39:15;;;;;;;;;;;22.40;96.30;;;;;;5008586;28;19929;-55
2022/05/08 12:41:45;;;;;;;;;;;22.40;96.20;;;;;;5015901;28;20406;-57
2022/05/08 12:44:12;;;;;;;;;;;22.40;96.10;;;;;;5009506;28;19937;-58
2022/05/08 12:46:40;;;;;;;;;;;22.40;96.10;;;;;;5015101;28;19929;-55
2022/05/08 12:49:10;;;;;;;;;;;22.40;96.10;;;;;;5013045;28;19944;-57
2022/05/08 12:51:37;;;;;;;;;;;22.40;96.00;;;;;;5005817;28;19952;-57
2022/05/08 12:54:04;;;;;;;;;;;22.40;95.90;;;;;;5006472;28;19936;-54
2022/05/08 12:56:32;;;;;;;;;;;22.40;95.90;;;;;;5006897;28;20368;-57
2022/05/08 13:01:46;;;;;;;;;;;22.40;95.80;;;;;;5010121;28;19933;-59
2022/05/08 13:04:14;;;;;;;;;;;22.50;95.80;;;;;;5014168;28;19932;-59
2022/05/08 13:06:41;;;;;;;;;;;22.50;96.00;;;;;;4999063;28;20412;-58
2022/05/08 13:09:09;;;;;;;;;;;22.50;95.70;;;;;;5006978;28;19929;-56
2022/05/08 13:11:36;;;;;;;;;;;22.60;95.70;;;;;;5002193;28;19936;-55
2022/05/08 13:14:04;;;;;;;;;;;22.60;95.60;;;;;;5010708;28;19942;-57
2022/05/08 13:16:32;;;;;;;;;;;22.60;95.60;;;;;;5007449;28;20405;-59
2022/05/08 13:18:59;;;;;;;;;;;22.60;95.60;;;;;;5010106;28;19934;-60
2022/05/08 13:21:28;;;;;;;;;;;22.60;95.50;;;;;;5009732;28;19937;-58
2022/05/08 13:23:55;;;;;;;;;;;22.70;95.50;;;;;;5013325;28;19936;-58
2022/05/08 13:26:22;;;;;;;;;;;22.70;95.50;;;;;;5006264;28;19936;-59
2022/05/08 13:28:49;;;;;;;;;;;22.70;95.60;;;;;;5014365;28;19929;-59
2022/05/08 13:31:17;;;;;;;;;;;22.70;95.70;;;;;;5016329;28;19929;-59
2022/05/08 13:33:44;;;;;;;;;;;22.60;95.70;;;;;;5015610;28;20350;-58
2022/05/08 13:36:12;;;;;;;;;;;22.70;95.70;;;;;;5015820;28;19929;-54
2022/05/08 13:38:41;;;;;;;;;;;22.60;95.70;;;;;;5014140;28;19929;-58
2022/05/08 13:41:09;;;;;;;;;;;22.60;95.70;;;;;;5011305;28;19936;-58
2022/05/08 13:43:36;;;;;;;;;;;22.70;95.70;;;;;;5012866;28;20357;-58
2022/05/08 13:46:04;;;;;;;;;;;22.80;95.60;;;;;;5001521;28;19929;-58
2022/05/08 13:48:32;;;;;;;;;;;22.80;95.50;;;;;;5011590;28;19929;-57
2022/05/08 13:50:59;;;;;;;;;;;22.90;95.50;;;;;;5004217;28;19925;-56
2022/05/08 13:53:27;;;;;;;;;;;22.90;95.40;;;;;;5009265;28;19944;-58
2022/05/08 13:55:56;;;;;;;;;;;23.00;95.30;;;;;;5006019;28;20130;-58
2022/05/08 13:58:23;;;;;;;;;;;23.00;95.30;;;;;;5008929;28;19936;-58
2022/05/08 14:00:55;;;;;;;;;;;23.00;95.30;;;;;;5017238;28;19929;-58
2022/05/08 14:03:23;;;;;;;;;;;23.00;95.20;;;;;;5013909;28;19960;-56
2022/05/08 14:05:50;;;;;;;;;;;23.10;95.20;;;;;;5012816;28;20373;-59
2022/05/08 14:08:18;;;;;;;;;;;23.10;95.10;;;;;;5002988;28;19933;-57
2022/05/08 14:10:46;;;;;;;;;;;23.00;95.20;;;;;;5003324;28;20328;-57
2022/05/08 14:13:15;;;;;;;;;;;22.90;95.30;;;;;;5009894;28;19929;-58
2022/05/08 14:15:42;;;;;;;;;;;22.90;95.40;;;;;;5011630;28;19936;-58
2022/05/08 14:18:10;;;;;;;;;;;22.80;95.50;;;;;;5013225;28;19929;-58
2022/05/08 14:20:38;;;;;;;;;;;22.80;95.50;;;;;;5005626;28;20312;-57
2022/05/08 14:23:05;;;;;;;;;;;22.80;95.60;;;;;;5008079;28;19929;-59
2022/05/08 14:25:32;;;;;;;;;;;22.70;95.60;;;;;;5006424;28;19933;-58
2022/05/08 14:28:01;;;;;;;;;;;22.70;95.70;;;;;;5009958;28;19941;-58
2022/05/08 14:30:29;;;;;;;;;;;22.70;95.80;;;;;;5015832;28;19925;-57
2022/05/08 14:38:28;;;;;;;;;;;22.60;95.90;;;;;;5011702;28;19930;-59
2022/05/08 14:40:57;;;;;;;;;;;22.60;95.90;;;;;;5005677;28;19929;-58
2022/05/08 14:43:25;;;;;;;;;;;22.60;95.90;;;;;;5013805;28;19929;-59
2022/05/08 14:45:52;;;;;;;;;;;22.60;95.90;;;;;;5010309;28;19936;-58
2022/05/08 14:48:20;;;;;;;;;;;22.50;96.00;;;;;;5016136;28;19937;-57
2022/05/08 14:50:47;;;;;;;;;;;22.50;95.90;;;;;;5010618;28;20293;-57
2022/05/08 14:53:15;;;;;;;;;;;22.50;96.00;;;;;;5009431;28;19952;-58
2022/05/08 14:55:43;;;;;;;;;;;22.50;96.00;;;;;;5008321;28;20320;-59
2022/05/08 14:58:12;;;;;;;;;;;22.50;96.00;;;;;;5005384;28;20316;-58
2022/05/08 15:00:40;;;;;;;;;;;22.40;96.00;;;;;;5009332;28;19934;-58
2022/05/08 15:03:07;;;;;;;;;;;22.40;96.00;;;;;;5016417;28;20313;-55